Time;durP1;ratioP1;P1;durP2;ratioP2;P2;SDS_P1;SDS_P2;PMS_P1;PMS_P2;Temp;Humidity;BMP_temperature;BMP_pressure;BME280_temperature;BME280_humidity;BME280_pressure;Samples;Min_cycle;Max_cycle;Signal;HPM_P1;HPM_P2
2022/09/30 00:01:09;;;;;;;17.13;9.57;;;;;;;4.97;100.00;100719.63;5067713;28;20032;-69
2022/09/30 00:03:37;;;;;;;20.98;10.38;;;;;;;4.87;100.00;100726.19;5066245;28;20048;-68
2022/09/30 00:06:05;;;;;;;12.25;8.48;;;;;;;4.88;100.00;100731.44;5050783;28;20044;-69
2022/09/30 00:08:31;;;;;;;14.48;8.52;;;;;;;4.93;100.00;100725.97;5067695;28;20044;-67
2022/09/30 00:11:08;;;;;;;14.23;8.02;;;;;;;5.01;100.00;100729.13;5067340;28;20036;-69
2022/09/30 00:13:36;;;;;;;13.75;9.27;;;;;;;4.96;100.00;100724.97;5061362;28;20032;-68
2022/09/30 00:16:03;;;;;;;15.75;9.23;;;;;;;5.00;100.00;100722.13;5062219;28;20112;-69
2022/09/30 00:18:29;;;;;;;16.40;9.70;;;;;;;5.05;100.00;100724.59;5067635;28;20060;-68
2022/09/30 00:20:55;;;;;;;16.48;9.43;;;;;;;5.04;100.00;100722.88;5058968;28;20032;-67
2022/09/30 00:23:21;;;;;;;15.23;8.50;;;;;;;4.91;100.00;100726.00;5050620;28;20047;-69
2022/09/30 00:25:47;;;;;;;12.85;8.73;;;;;;;4.94;100.00;100728.53;5066920;28;20071;-66
2022/09/30 00:28:13;;;;;;;13.13;8.13;;;;;;;5.01;100.00;100722.97;5046125;28;20180;-69
2022/09/30 00:30:39;;;;;;;12.63;8.43;;;;;;;4.95;100.00;100726.75;5046775;28;20040;-69
2022/09/30 00:33:04;;;;;;;12.35;7.70;;;;;;;4.92;100.00;100729.53;5061015;28;20404;-69
2022/09/30 00:35:30;;;;;;;14.20;8.07;;;;;;;4.74;100.00;100736.44;5058597;28;20067;-68
2022/09/30 00:37:55;;;;;;;10.20;7.13;;;;;;;4.53;100.00;100737.31;5065535;28;20094;-69
2022/09/30 00:40:21;;;;;;;12.98;6.63;;;;;;;4.47;100.00;100730.50;5047209;28;20039;-68
2022/09/30 00:42:46;;;;;;;10.75;6.70;;;;;;;4.47;100.00;100729.59;5059247;28;20047;-69
2022/09/30 00:45:13;;;;;;;10.25;7.03;;;;;;;4.58;100.00;100730.06;5042267;28;20040;-69
2022/09/30 00:47:45;;;;;;;12.27;7.30;;;;;;;4.53;100.00;100729.38;5063361;28;20082;-69
2022/09/30 00:50:14;;;;;;;12.68;8.10;;;;;;;4.74;100.00;100730.28;5058926;28;20029;-69
2022/09/30 00:52:42;;;;;;;17.58;8.88;;;;;;;4.79;100.00;100723.88;5058791;28;20105;-68
2022/09/30 00:55:19;;;;;;;13.25;7.93;;;;;;;4.71;100.00;100728.63;5057744;28;20221;-68
2022/09/30 00:57:44;;;;;;;12.48;7.80;;;;;;;4.78;100.00;100730.09;5060872;28;20052;-66
2022/09/30 01:00:10;;;;;;;12.90;8.30;;;;;;;4.76;100.00;100734.56;5063668;28;20028;-68
2022/09/30 01:02:35;;;;;;;15.07;9.45;;;;;;;4.74;100.00;100736.44;5062612;28;20040;-69
2022/09/30 01:05:01;;;;;;;13.10;6.55;;;;;;;4.56;100.00;100726.59;5054397;28;20785;-69
2022/09/30 01:07:28;;;;;;;9.32;6.30;;;;;;;4.44;100.00;100735.03;5055130;28;20064;-68
2022/09/30 01:09:55;;;;;;;9.32;6.75;;;;;;;4.30;100.00;100738.19;5063173;28;20041;-69
2022/09/30 01:12:24;;;;;;;12.68;7.80;;;;;;;4.20;100.00;100750.91;5064008;28;20044;-69
2022/09/30 01:14:52;;;;;;;9.73;6.60;;;;;;;4.21;100.00;100743.84;5062549;28;20028;-69
2022/09/30 01:17:23;;;;;;;8.73;6.22;;;;;;;4.23;100.00;100742.00;5063063;28;20034;-68
2022/09/30 01:20:07;;;;;;;8.05;6.50;;;;;;;4.33;100.00;100741.59;5057038;28;20048;-69
2022/09/30 01:22:47;;;;;;;9.68;7.00;;;;;;;4.38;100.00;100738.78;5060050;28;20055;-69
2022/09/30 01:25:43;;;;;;;14.93;7.78;;;;;;;4.40;100.00;100736.91;5059537;28;20359;-68
2022/09/30 01:28:35;;;;;;;10.65;7.82;;;;;;;4.48;100.00;100739.28;5060429;28;20043;-67
2022/09/30 01:31:20;;;;;;;9.63;6.97;;;;;;;4.43;100.00;100739.44;5060149;28;20044;-69
2022/09/30 01:34:02;;;;;;;16.30;8.27;;;;;;;4.47;100.00;100738.41;5060840;28;20150;-66
2022/09/30 01:36:33;;;;;;;12.33;8.47;;;;;;;4.48;100.00;100731.34;5051016;28;20067;-69
2022/09/30 01:39:11;;;;;;;18.95;9.35;;;;;;;4.48;100.00;100734.00;5057869;28;20491;-69
2022/09/30 01:42:14;;;;;;;18.55;8.68;;;;;;;4.49;100.00;100744.47;5055394;28;20052;-67
2022/09/30 01:44:49;;;;;;;11.93;7.47;;;;;;;4.30;100.00;100746.97;5062229;28;20044;-68
2022/09/30 01:47:29;;;;;;;10.40;6.97;;;;;;;4.10;100.00;100745.09;5062999;28;20484;-69
2022/09/30 01:50:31;;;;;;;10.15;6.95;;;;;;;4.12;100.00;100751.19;5062408;28;20056;-69
2022/09/30 01:53:15;;;;;;;13.52;9.50;;;;;;;4.41;100.00;100741.28;5056399;28;20035;-70
2022/09/30 01:55:54;;;;;;;10.85;7.63;;;;;;;4.47;100.00;100738.41;5063270;28;20119;-66
2022/09/30 01:58:27;;;;;;;12.75;8.80;;;;;;;4.53;100.00;100735.53;5060128;28;20178;-67
2022/09/30 02:00:59;;;;;;;11.13;8.20;;;;;;;4.52;100.00;100732.91;5059403;28;20040;-69
2022/09/30 02:03:52;;;;;;;13.07;8.70;;;;;;;4.50;100.00;100729.50;5062841;28;20830;-69
2022/09/30 02:06:24;;;;;;;10.27;7.10;;;;;;;4.27;100.00;100731.28;5047216;28;20060;-69
2022/09/30 02:09:02;;;;;;;8.30;6.18;;;;;;;4.07;100.00;100739.09;5060092;28;20033;-69
2022/09/30 02:11:31;;;;;;;8.80;6.22;;;;;;;4.05;100.00;100736.50;5054806;28;20059;-70
2022/09/30 02:14:18;;;;;;;8.82;6.03;;;;;;;4.12;100.00;100742.44;5060870;28;20048;-68
2022/09/30 02:16:52;;;;;;;9.80;7.63;;;;;;;4.21;100.00;100742.06;5051826;28;20048;-68
2022/09/30 02:19:28;;;;;;;9.55;7.57;;;;;;;4.16;100.00;100742.22;5041959;28;20040;-69
2022/09/30 02:22:07;;;;;;;11.63;7.90;;;;;;;4.09;100.00;100746.03;5057764;28;20064;-67
2022/09/30 02:24:37;;;;;;;10.63;7.10;;;;;;;4.02;100.00;100747.19;5043168;28;20068;-69
2022/09/30 02:27:10;;;;;;;14.40;7.22;;;;;;;4.01;100.00;100748.09;5055746;28;20032;-68
2022/09/30 02:29:38;;;;;;;;;;;;;;;4.07;100.00;100745.25;5038763;28;20036;-67
2022/09/30 02:32:12;;;;;;;10.90;6.97;;;;;;;4.15;100.00;100747.56;5060977;28;19916;-68
2022/09/30 02:34:40;;;;;;;10.63;7.88;;;;;;;4.18;100.00;100752.75;5050144;28;20064;-68
2022/09/30 02:37:16;;;;;;;15.65;9.30;;;;;;;4.28;100.00;100742.69;5060312;28;20037;-67
2022/09/30 02:40:13;;;;;;;13.77;9.30;;;;;;;4.35;100.00;100747.66;5061348;28;20063;-69
2022/09/30 02:42:40;;;;;;;17.52;10.70;;;;;;;4.21;100.00;100749.97;5058628;28;20067;-68
2022/09/30 02:45:15;;;;;;;13.10;7.68;;;;;;;3.97;100.00;100758.84;5059416;28;20049;-67
2022/09/30 02:47:57;;;;;;;11.48;7.28;;;;;;;4.03;100.00;100758.59;5050834;28;20052;-69
2022/09/30 02:50:38;;;;;;;10.43;6.72;;;;;;;3.93;100.00;100751.97;5033039;28;20167;-67
2022/09/30 02:53:22;;;;;;;25.25;10.00;;;;;;;3.96;100.00;100755.31;5059647;28;20044;-68
2022/09/30 02:56:09;;;;;;;16.95;8.73;;;;;;;3.98;100.00;100753.50;5062315;28;20038;-70
2022/09/30 02:58:38;;;;;;;16.52;8.20;;;;;;;4.00;100.00;100756.94;5040175;28;20099;-68
2022/09/30 03:01:06;;;;;;;24.92;11.43;;;;;;;4.14;100.00;100756.41;5060351;28;20036;-68
2022/09/30 03:03:37;;;;;;;35.25;11.98;;;;;;;4.27;100.00;100754.19;5051829;28;20539;-69
2022/09/30 03:06:03;;;;;;;35.17;13.73;;;;;;;4.29;100.00;100761.09;5055390;28;20144;-68
2022/09/30 03:08:29;;;;;;;22.45;10.82;;;;;;;4.12;100.00;100756.47;5056694;28;20314;-69
2022/09/30 03:10:55;;;;;;;44.25;10.48;;;;;;;3.99;100.00;100763.13;5060910;28;20043;-69
2022/09/30 03:13:23;;;;;;;26.90;9.95;;;;;;;3.90;100.00;100774.03;5052650;28;20041;-69
2022/09/30 03:16:18;;;;;;;18.77;9.13;;;;;;;3.97;100.00;100762.34;5059194;28;20050;-68
2022/09/30 03:19:25;;;;;;;15.85;9.50;;;;;;;4.01;100.00;100765.69;5056765;28;20052;-69
2022/09/30 03:22:16;;;;;;;21.13;9.73;;;;;;;4.11;100.00;100760.00;5054813;28;20071;-67
2022/09/30 03:24:45;;;;;;;19.58;10.38;;;;;;;4.18;100.00;100762.44;5060255;28;20048;-69
2022/09/30 03:27:20;;;;;;;18.33;10.27;;;;;;;4.18;100.00;100765.94;5059805;28;20063;-69
2022/09/30 03:30:04;;;;;;;16.27;10.43;;;;;;;4.00;100.00;100770.13;5055719;28;20446;-67
2022/09/30 03:32:51;;;;;;;38.78;11.07;;;;;;;3.89;100.00;100774.94;5059478;28;20091;-69
2022/09/30 03:35:16;;;;;;;25.13;10.60;;;;;;;3.80;100.00;100781.41;5050002;28;20036;-68
2022/09/30 03:38:02;;;;;;;20.90;10.35;;;;;;;3.95;100.00;100772.06;5041465;28;20056;-69
2022/09/30 03:40:40;;;;;;;30.25;11.13;;;;;;;3.97;100.00;100779.94;5055303;28;20036;-69
2022/09/30 03:43:15;;;;;;;17.80;10.45;;;;;;;3.98;100.00;100774.59;5053077;28;20098;-67
2022/09/30 03:45:57;;;;;;;17.00;10.82;;;;;;;4.00;100.00;100780.66;5058075;28;20037;-69
2022/09/30 03:48:25;;;;;;;16.98;9.27;;;;;;;3.80;100.00;100789.31;5055892;28;20053;-69
2022/09/30 03:50:52;;;;;;;17.20;10.63;;;;;;;3.80;100.00;100794.59;5059846;28;20048;-69
2022/09/30 03:53:17;;;;;;;18.08;11.15;;;;;;;3.77;100.00;100800.00;5059140;28;20037;-69
2022/09/30 03:55:49;;;;;;;14.95;9.70;;;;;;;3.78;100.00;100800.84;5054534;28;20033;-69
2022/09/30 03:58:17;;;;;;;37.30;9.95;;;;;;;3.63;100.00;100804.91;5047172;28;20044;-69
2022/09/30 04:00:51;;;;;;;11.43;7.95;;;;;;;3.47;100.00;100809.00;5056797;28;20036;-69
2022/09/30 04:03:20;;;;;;;10.82;7.47;;;;;;;3.44;100.00;100807.31;5031602;28;20052;-69
2022/09/30 04:05:46;;;;;;;14.52;9.38;;;;;;;3.58;100.00;100798.94;5041803;28;20117;-69
2022/09/30 04:08:12;;;;;;;16.58;10.48;;;;;;;3.54;100.00;100792.88;5063150;28;20556;-69
2022/09/30 04:10:40;;;;;;;16.45;10.25;;;;;;;3.68;100.00;100795.03;5063712;28;20101;-69
2022/09/30 04:13:06;;;;;;;21.15;12.63;;;;;;;3.77;100.00;100801.78;5059744;28;20119;-68
2022/09/30 04:15:32;;;;;;;20.05;10.57;;;;;;;3.80;100.00;100805.13;5063335;28;20128;-68
2022/09/30 04:17:58;;;;;;;19.30;12.27;;;;;;;3.80;100.00;100805.13;5062064;28;20814;-68
2022/09/30 04:20:24;;;;;;;19.23;11.30;;;;;;;3.86;100.00;100812.81;5054123;28;20032;-69
2022/09/30 04:22:49;;;;;;;22.98;12.35;;;;;;;3.89;100.00;100807.44;5061005;28;20048;-69
2022/09/30 04:25:15;;;;;;;22.33;12.00;;;;;;;3.75;100.00;100820.28;5062436;28;20032;-68
2022/09/30 04:27:40;;;;;;;16.90;10.25;;;;;;;3.63;100.00;100829.47;5060072;28;20719;-69
2022/09/30 04:30:06;;;;;;;16.33;10.25;;;;;;;3.60;100.00;100828.72;5061992;28;20715;-69
2022/09/30 04:32:31;;;;;;;16.60;10.77;;;;;;;3.60;100.00;100823.44;5060956;28;20033;-69
2022/09/30 04:34:57;;;;;;;18.27;11.30;;;;;;;3.62;100.00;100835.69;5061547;28;20040;-69
2022/09/30 04:37:23;;;;;;;17.50;10.65;;;;;;;3.70;100.00;100835.38;5062091;28;20037;-69
2022/09/30 04:39:48;;;;;;;17.48;11.23;;;;;;;3.71;100.00;100838.88;5057199;28;20040;-69
2022/09/30 04:42:15;;;;;;;20.33;11.10;;;;;;;3.75;100.00;100846.63;5060463;28;20036;-68
2022/09/30 04:44:40;;;;;;;17.13;11.95;;;;;;;3.79;100.00;100839.50;5062092;28;20063;-70
2022/09/30 04:47:06;;;;;;;14.65;10.00;;;;;;;3.73;100.00;100845.84;5059816;28;20047;-68
2022/09/30 04:49:31;;;;;;;15.82;9.80;;;;;;;3.52;100.00;100842.19;5062057;28;20032;-69
2022/09/30 04:51:57;;;;;;;14.82;9.70;;;;;;;3.50;100.00;100851.91;5058821;28;20047;-68
2022/09/30 04:54:23;;;;;;;15.32;9.80;;;;;;;3.49;100.00;100849.31;5061310;28;20036;-68
2022/09/30 04:56:48;;;;;;;14.30;9.63;;;;;;;3.47;100.00;100845.91;5060638;28;20504;-68
2022/09/30 04:59:13;;;;;;;15.00;10.23;;;;;;;3.57;100.00;100850.78;5043066;28;20061;-69
2022/09/30 05:01:41;;;;;;;18.52;11.20;;;;;;;3.61;100.00;100848.88;5043066;28;20043;-69
2022/09/30 05:04:07;;;;;;;19.48;12.23;;;;;;;3.59;100.00;100856.88;5055299;28;20059;-70
2022/09/30 05:06:33;;;;;;;17.13;11.55;;;;;;;3.58;100.00;100863.06;5056949;28;20040;-69
2022/09/30 05:08:59;;;;;;;15.50;10.23;;;;;;;3.54;100.00;100857.94;5060898;28;20884;-67
2022/09/30 05:11:25;;;;;;;18.15;10.93;;;;;;;3.58;100.00;100855.16;5058305;28;20033;-70
2022/09/30 05:13:50;;;;;;;18.08;10.60;;;;;;;3.68;100.00;100862.75;5051749;28;20052;-69
2022/09/30 05:16:16;;;;;;;17.90;11.75;;;;;;;3.60;100.00;100865.63;5040278;28;20048;-66
2022/09/30 05:18:45;;;;;;;16.92;11.15;;;;;;;3.63;100.00;100868.19;5058781;28;20139;-67
2022/09/30 05:21:11;;;;;;;15.82;9.65;;;;;;;3.56;100.00;100871.91;5060981;28;20496;-69
2022/09/30 05:23:37;;;;;;;13.20;9.40;;;;;;;3.48;100.00;100872.19;5060037;28;20664;-70
2022/09/30 05:26:03;;;;;;;20.42;12.38;;;;;;;3.57;100.00;100873.66;5041004;28;20047;-67
2022/09/30 05:28:30;;;;;;;16.52;10.02;;;;;;;3.54;100.00;100868.47;5055529;28;20040;-69
2022/09/30 05:31:05;;;;;;;14.35;9.80;;;;;;;3.33;100.00;100868.28;5054151;28;20047;-69
2022/09/30 05:33:31;;;;;;;13.98;8.85;;;;;;;3.26;100.00;100876.44;5057007;28;20064;-68
2022/09/30 05:36:06;;;;;;;12.20;8.15;;;;;;;3.26;100.00;100879.97;5042394;28;20837;-69
2022/09/30 05:38:31;;;;;;;19.10;12.25;;;;;;;3.44;100.00;100869.72;5054381;28;20039;-69
2022/09/30 05:40:57;;;;;;;21.23;11.63;;;;;;;3.52;100.00;100862.41;5058955;28;20063;-68
2022/09/30 05:43:22;;;;;;;21.92;11.93;;;;;;;3.71;100.00;100870.53;5060105;28;20032;-67
2022/09/30 05:45:56;;;;;;;18.85;10.32;;;;;;;3.65;100.00;100868.97;5042453;28;20040;-68
2022/09/30 05:48:23;;;;;;;15.60;9.55;;;;;;;3.44;100.00;100875.84;5056156;28;20614;-67
2022/09/30 05:50:52;;;;;;;17.98;11.02;;;;;;;3.55;100.00;100886.00;5060027;28;20079;-69
2022/09/30 05:53:18;;;;;;;20.10;12.30;;;;;;;3.68;100.00;100889.13;5058174;28;20089;-66
2022/09/30 05:55:47;;;;;;;20.77;11.73;;;;;;;3.74;100.00;100887.13;5057994;28;20791;-67
2022/09/30 05:58:14;;;;;;;21.90;11.60;;;;;;;3.77;100.00;100887.03;5042921;28;20052;-68
2022/09/30 06:00:41;;;;;;;17.73;10.55;;;;;;;3.72;100.00;100894.22;5057713;28;20485;-68
2022/09/30 06:03:07;;;;;;;19.30;12.27;;;;;;;3.84;100.00;100896.44;5059900;28;20048;-67
2022/09/30 06:05:32;;;;;;;18.92;10.57;;;;;;;3.57;100.00;100906.16;5059384;28;20031;-68
2022/09/30 06:07:57;;;;;;;18.42;10.77;;;;;;;3.52;100.00;100902.81;5059914;28;20404;-66
2022/09/30 06:10:23;;;;;;;13.63;9.32;;;;;;;3.62;100.00;100911.28;5056438;28;20170;-68
2022/09/30 06:12:48;;;;;;;19.10;12.18;;;;;;;3.72;100.00;100917.97;5059768;28;20045;-68
2022/09/30 06:15:14;;;;;;;20.58;10.77;;;;;;;3.81;100.00;100914.13;5050456;28;20040;-68
2022/09/30 06:17:41;;;;;;;17.75;12.13;;;;;;;3.90;100.00;100911.19;5057630;28;20054;-68
2022/09/30 06:20:10;;;;;;;18.08;11.55;;;;;;;4.01;100.00;100906.38;5059858;28;20044;-67
2022/09/30 06:22:35;;;;;;;23.52;13.07;;;;;;;4.09;100.00;100920.19;5059097;28;20039;-68
2022/09/30 06:25:05;;;;;;;17.25;11.45;;;;;;;4.31;100.00;100925.53;5058294;28;20032;-67
2022/09/30 06:27:32;;;;;;;22.42;12.32;;;;;;;4.54;100.00;100930.00;5059621;28;20035;-67
2022/09/30 06:29:58;;;;;;;19.40;12.80;;;;;;;4.82;100.00;100931.59;5036436;28;20060;-68
2022/09/30 06:32:25;;;;;;;21.02;11.65;;;;;;;5.11;100.00;100926.03;5059391;28;20135;-67
2022/09/30 06:34:51;;;;;;;18.45;11.63;;;;;;;5.51;100.00;100920.94;5057034;28;20109;-68
2022/09/30 06:37:17;;;;;;;20.67;13.00;;;;;;;5.99;100.00;100919.84;5057045;28;20127;-67
2022/09/30 06:39:43;;;;;;;22.00;13.85;;;;;;;6.35;100.00;100923.50;5059780;28;20040;-67
2022/09/30 06:42:10;;;;;;;27.00;15.80;;;;;;;6.82;100.00;100923.13;5058663;28;20114;-69
2022/09/30 06:44:35;;;;;;;24.77;14.95;;;;;;;6.57;100.00;100925.19;5056966;28;20036;-68
2022/09/30 06:47:01;;;;;;;23.30;14.48;;;;;;;6.94;100.00;100927.88;5057657;28;20809;-68
2022/09/30 06:49:27;;;;;;;24.90;15.45;;;;;;;7.56;100.00;100932.88;5059276;28;20036;-68
2022/09/30 06:51:52;;;;;;;21.45;14.23;;;;;;;7.59;100.00;100930.94;5056955;28;20463;-68
2022/09/30 06:54:21;;;;;;;26.48;15.85;;;;;;;7.73;100.00;100933.75;5057331;28;20063;-68
2022/09/30 06:56:47;;;;;;;28.13;16.98;;;;;;;8.03;100.00;100941.97;5037794;28;20032;-67
2022/09/30 06:59:15;;;;;;;26.27;17.10;;;;;;;8.82;100.00;100928.94;5054518;28;20028;-68
2022/09/30 07:01:41;;;;;;;32.28;18.90;;;;;;;9.19;100.00;100929.56;5058691;28;20059;-69
2022/09/30 07:04:09;;;;;;;32.42;19.40;;;;;;;9.26;100.00;100925.59;5049857;28;20168;-69
2022/09/30 07:06:35;;;;;;;32.60;19.45;;;;;;;9.43;100.00;100913.97;5058500;28;20401;-68
2022/09/30 07:09:00;;;;;;;33.88;19.50;;;;;;;9.87;100.00;100923.84;5057301;28;20040;-69
2022/09/30 07:11:26;;;;;;;38.95;21.75;;;;;;;9.51;100.00;100918.88;5059153;28;20041;-68
2022/09/30 07:13:51;;;;;;;35.67;20.38;;;;;;;9.70;100.00;100922.19;5058520;28;20044;-69
2022/09/30 07:16:19;;;;;;;40.65;21.15;;;;;;;9.66;100.00;100923.31;5039833;28;20044;-69
2022/09/30 07:18:45;;;;;;;38.28;22.55;;;;;;;9.71;100.00;100920.38;5058348;28;20047;-67
2022/09/30 07:21:14;;;;;;;38.25;23.50;;;;;;;10.36;100.00;100916.47;5058170;28;20338;-69
2022/09/30 07:23:44;;;;;;;38.60;23.08;;;;;;;10.37;100.00;100920.00;5056683;28;20037;-68
2022/09/30 07:26:10;;;;;;;41.08;24.63;;;;;;;10.37;100.00;100914.66;5053845;28;20044;-69
2022/09/30 07:28:38;;;;;;;41.33;24.45;;;;;;;10.40;100.00;100914.47;5033178;28;20037;-66
2022/09/30 07:31:12;;;;;;;46.47;24.90;;;;;;;10.97;100.00;100919.78;5033417;28;20090;-67
2022/09/30 07:33:38;;;;;;;42.85;25.88;;;;;;;11.00;100.00;100911.59;5032877;28;20098;-68
2022/09/30 07:36:07;;;;;;;39.03;25.00;;;;;;;11.31;100.00;100918.47;5056523;28;20037;-67
2022/09/30 07:38:35;;;;;;;45.28;26.17;;;;;;;11.44;100.00;100912.31;5057001;28;20405;-67
2022/09/30 07:41:09;;;;;;;46.80;25.00;;;;;;;11.89;97.56;100919.94;5052222;28;20036;-69
2022/09/30 07:43:39;;;;;;;39.53;24.52;;;;;;;11.69;98.31;100920.41;5058394;28;20040;-65
2022/09/30 07:46:12;;;;;;;42.35;24.85;;;;;;;12.03;98.38;100910.16;5058242;28;20412;-67
2022/09/30 07:48:43;;;;;;;47.80;27.23;;;;;;;11.60;99.67;100913.88;5056929;28;20098;-68
2022/09/30 07:51:15;;;;;;;46.15;26.83;;;;;;;11.34;100.00;100910.22;5040654;28;20049;-67
2022/09/30 07:53:44;;;;;;;48.85;28.75;;;;;;;11.60;100.00;100911.22;5061662;28;20101;-68
2022/09/30 07:56:10;;;;;;;44.72;27.88;;;;;;;11.53;100.00;100917.03;5057261;28;20078;-68
2022/09/30 07:58:36;;;;;;;48.03;29.50;;;;;;;11.54;100.00;100927.63;5059319;28;20194;-69
2022/09/30 08:01:05;;;;;;;48.95;28.83;;;;;;;11.58;100.00;100921.13;5061635;28;20036;-66
2022/09/30 08:03:38;;;;;;;52.15;30.40;;;;;;;11.12;100.00;100926.78;5060339;28;20036;-68
2022/09/30 08:06:17;;;;;;;;;;;;;;;11.42;100.00;100931.09;5043669;28;20037;-69
2022/09/30 08:08:44;;;;;;;51.85;29.90;;;;;;;11.13;100.00;100931.16;5042950;28;19920;-70
2022/09/30 08:11:11;;;;;;;52.83;29.67;;;;;;;11.30;100.00;100931.91;5062589;28;20044;-69
2022/09/30 08:13:37;;;;;;;49.67;29.23;;;;;;;11.50;100.00;100927.94;5060380;28;20874;-69
2022/09/30 08:16:03;;;;;;;54.97;31.40;;;;;;;11.37;100.00;100927.88;5061634;28;20113;-67
2022/09/30 08:18:29;;;;;;;54.42;32.50;;;;;;;11.35;100.00;100928.00;5061902;28;20755;-67
2022/09/30 08:20:55;;;;;;;53.35;32.40;;;;;;;11.51;100.00;100919.81;5059296;28;20059;-66
2022/09/30 08:23:21;;;;;;;56.03;32.28;;;;;;;11.58;100.00;100928.28;5060079;28;20491;-68
2022/09/30 08:25:47;;;;;;;57.95;32.72;;;;;;;11.57;100.00;100931.91;5058071;28;20036;-68
2022/09/30 08:28:13;;;;;;;54.25;31.58;;;;;;;11.86;100.00;100928.19;5039629;28;20036;-67
2022/09/30 08:30:39;;;;;;;51.20;30.52;;;;;;;11.74;100.00;100920.09;5061022;28;20098;-68
2022/09/30 08:33:05;;;;;;;55.63;33.10;;;;;;;11.78;100.00;100922.47;5062197;28;20040;-66
2022/09/30 08:35:30;;;;;;;47.03;28.83;;;;;;;11.75;100.00;100927.19;5061428;28;20039;-68
2022/09/30 08:37:56;;;;;;;48.90;29.63;;;;;;;11.88;100.00;100920.06;5043423;28;20067;-69
2022/09/30 08:40:30;;;;;;;54.85;28.77;;;;;;;11.90;100.00;100926.19;5058365;28;20036;-69
2022/09/30 08:43:23;;;;;;;45.15;28.58;;;;;;;11.90;100.00;100931.53;5056304;28;20037;-67
2022/09/30 08:46:01;;;;;;;45.63;28.52;;;;;;;12.01;100.00;100928.13;5058521;28;20040;-69
2022/09/30 08:48:52;;;;;;;46.15;28.58;;;;;;;12.23;100.00;100922.16;5058027;28;20052;-69
2022/09/30 08:51:36;;;;;;;45.88;27.48;;;;;;;12.42;100.00;100928.78;5036929;28;20064;-69
2022/09/30 08:54:08;;;;;;;48.60;29.45;;;;;;;12.52;100.00;100922.81;5059089;28;20071;-70
2022/09/30 08:56:35;;;;;;;39.17;26.60;;;;;;;12.60;100.00;100926.66;5059387;28;20062;-69
2022/09/30 08:59:06;;;;;;;40.80;25.60;;;;;;;12.58;100.00;100933.06;5037470;28;20036;-68
2022/09/30 09:01:39;;;;;;;44.33;27.35;;;;;;;12.75;100.00;100938.09;5055195;28;20040;-69
2022/09/30 09:04:06;;;;;;;41.83;26.52;;;;;;;12.74;100.00;100928.34;5054537;28;20148;-70
2022/09/30 09:06:51;;;;;;;42.13;26.75;;;;;;;12.81;100.00;100934.97;5060374;28;20062;-69
2022/09/30 09:09:36;;;;;;;39.85;25.95;;;;;;;13.12;99.20;100938.97;5058426;28;20041;-69
2022/09/30 09:12:14;;;;;;;39.13;24.00;;;;;;;13.30;97.02;100938.63;5059466;28;20041;-69
2022/09/30 09:15:08;;;;;;;34.15;23.63;;;;;;;13.52;94.68;100925.38;5060319;28;20396;-68
2022/09/30 09:17:43;;;;;;;35.80;22.20;;;;;;;13.68;96.36;100922.41;5060208;28;20044;-69
2022/09/30 09:20:17;;;;;;;36.50;21.30;;;;;;;13.62;92.31;100923.72;5056837;28;20053;-68
2022/09/30 09:22:49;;;;;;;30.88;21.30;;;;;;;13.64;91.84;100924.44;5055373;28;20032;-70
2022/09/30 09:25:18;;;;;;;31.73;20.70;;;;;;;13.50;93.40;100919.25;5055984;28;20683;-69
2022/09/30 09:27:52;;;;;;;34.92;20.52;;;;;;;13.65;92.57;100919.94;5029237;28;20037;-67
2022/09/30 09:30:33;;;;;;;32.40;22.33;;;;;;;13.69;93.70;100910.69;5049581;28;20117;-70
2022/09/30 09:33:20;;;;;;;29.42;20.40;;;;;;;13.89;90.88;100915.41;5058735;28;20075;-69
2022/09/30 09:36:05;;;;;;;28.17;20.20;;;;;;;13.71;90.90;100909.63;5036901;28;20044;-68
2022/09/30 09:38:47;;;;;;;31.77;20.20;;;;;;;14.05;91.16;100909.72;5057232;28;20056;-67
2022/09/30 09:41:34;;;;;;;28.38;19.20;;;;;;;13.86;90.85;100909.44;5053787;28;20047;-68
2022/09/30 09:44:13;;;;;;;29.52;19.27;;;;;;;14.24;90.58;100909.16;5041622;28;20044;-70
2022/09/30 09:47:14;;;;;;;29.48;19.20;;;;;;;14.18;86.88;100906.97;5023690;28;20534;-70
2022/09/30 09:49:43;;;;;;;26.38;18.77;;;;;;;14.44;85.95;100911.13;5052412;28;20048;-70
2022/09/30 09:52:12;;;;;;;27.60;17.48;;;;;;;14.14;86.31;100914.38;5057156;28;20036;-69
2022/09/30 09:54:46;;;;;;;32.28;18.70;;;;;;;14.31;88.22;100912.22;5034257;28;20048;-69
2022/09/30 09:57:24;;;;;;;25.88;19.13;;;;;;;14.41;86.38;100916.75;5058882;28;20036;-69
2022/09/30 10:03:03;;;;;;;23.95;16.75;;;;;;;14.40;86.30;100933.81;5036520;28;20047;-68
2022/09/30 10:05:38;;;;;;;22.80;16.92;;;;;;;14.58;87.47;100946.81;5040524;28;20044;-69
2022/09/30 10:08:15;;;;;;;25.58;16.92;;;;;;;14.53;85.39;100941.81;5053149;28;20041;-71
2022/09/30 10:10:52;;;;;;;28.42;16.77;;;;;;;14.66;85.29;100934.50;5059519;28;20526;-69
2022/09/30 10:13:21;;;;;;;23.13;16.80;;;;;;;14.98;86.83;100921.19;5059090;28;20430;-68
2022/09/30 10:15:48;;;;;;;26.13;16.15;;;;;;;14.88;85.28;100928.28;5058777;28;20154;-70
2022/09/30 10:18:30;;;;;;;23.40;16.85;;;;;;;14.82;82.02;100925.25;5049635;28;20064;-69
2022/09/30 10:20:59;;;;;;;24.95;17.13;;;;;;;14.85;81.07;100936.56;5056193;28;20547;-69
2022/09/30 10:23:27;;;;;;;34.22;18.77;;;;;;;14.87;81.31;100939.16;5058353;28;20036;-68
2022/09/30 10:26:15;;;;;;;28.58;18.27;;;;;;;15.02;82.15;100936.09;5058283;28;20748;-69
2022/09/30 10:28:46;;;;;;;30.92;19.65;;;;;;;15.15;82.24;100930.56;5050816;28;20032;-69
2022/09/30 10:31:33;;;;;;;29.08;18.95;;;;;;;15.20;81.48;100922.13;5058323;28;20040;-68
2022/09/30 10:34:30;;;;;;;27.50;19.88;;;;;;;15.06;81.91;100925.06;5058375;28;20032;-68
2022/09/30 10:36:59;;;;;;;28.95;20.92;;;;;;;14.97;82.01;100922.16;5056505;28;20756;-70
2022/09/30 10:39:29;;;;;;;28.02;18.05;;;;;;;15.20;80.74;100935.56;5056410;28;20036;-70
2022/09/30 10:42:08;;;;;;;26.10;18.77;;;;;;;15.22;83.98;100920.19;5056453;28;20612;-69
2022/09/30 10:44:46;;;;;;;31.20;19.70;;;;;;;15.44;81.65;100908.50;5052615;28;20047;-68
2022/09/30 10:47:21;;;;;;;23.58;17.60;;;;;;;15.52;80.73;100911.44;5058456;28;20505;-69
2022/09/30 10:49:55;;;;;;;26.42;17.30;;;;;;;15.59;79.44;100909.06;5051773;28;20048;-67
2022/09/30 10:52:27;;;;;;;27.33;17.60;;;;;;;15.39;79.17;100919.63;5050472;28;20495;-70
2022/09/30 10:54:54;;;;;;;26.55;19.17;;;;;;;15.38;78.90;100914.41;5040091;28;20111;-70
2022/09/30 10:57:30;;;;;;;27.55;19.00;;;;;;;15.55;82.73;100903.09;5058799;28;20032;-69
2022/09/30 11:00:00;;;;;;;28.88;20.48;;;;;;;15.55;81.59;100906.63;5029959;28;20033;-69
2022/09/30 11:02:44;;;;;;;25.48;18.48;;;;;;;15.66;79.98;100916.56;5058087;28;20068;-71
2022/09/30 11:05:23;;;;;;;27.92;19.02;;;;;;;15.78;80.70;100922.72;5058300;28;20849;-70
2022/09/30 11:08:00;;;;;;;25.98;18.65;;;;;;;15.44;79.67;100914.75;5038135;28;20086;-69
2022/09/30 11:10:49;;;;;;;27.55;20.23;;;;;;;15.75;80.23;100917.59;5058241;28;20036;-70
2022/09/30 11:13:17;;;;;;;28.15;19.13;;;;;;;15.68;81.22;100914.56;5050966;28;20041;-70
2022/09/30 11:16:10;;;;;;;32.53;22.52;;;;;;;15.68;80.31;100914.56;5054430;28;20036;-70
2022/09/30 11:18:55;;;;;;;29.35;20.48;;;;;;;15.68;82.67;100911.88;5055859;28;20661;-68
2022/09/30 11:21:54;;;;;;;32.00;21.83;;;;;;;15.73;82.64;100906.97;5057572;28;20037;-69
2022/09/30 11:24:25;;;;;;;31.85;21.15;;;;;;;16.05;82.54;100901.53;5052053;28;20044;-67
2022/09/30 11:27:19;;;;;;;31.67;20.55;;;;;;;16.30;84.47;100902.13;5056309;28;20033;-70
2022/09/30 11:29:53;;;;;;;29.80;21.58;;;;;;;16.25;81.57;100909.75;5054143;28;20044;-72
2022/09/30 11:32:37;;;;;;;29.35;20.38;;;;;;;15.78;79.97;100901.22;5049854;28;20117;-73
2022/09/30 11:35:08;;;;;;;22.63;17.52;;;;;;;15.50;77.99;100898.09;5053049;28;20037;-68
2022/09/30 11:38:01;;;;;;;24.30;17.40;;;;;;;15.92;77.26;100887.47;5055124;28;20033;-68